createdAt,value
2019-04-23T00:00:13.234Z,1.93
2019-04-23T00:02:51.158Z,2.50
2019-04-23T00:05:33.532Z,2.23
2019-04-23T00:10:25.649Z,2.23
2019-04-23T00:12:53.084Z,2.10
2019-04-23T00:17:48.429Z,2.30
2019-04-23T00:20:25.669Z,2.20
2019-04-23T00:23:00.741Z,1.83
2019-04-23T00:25:55.947Z,2.13
2019-04-23T00:28:20.439Z,2.33
2019-04-23T00:30:55.361Z,1.97
2019-04-23T00:35:50.120Z,2.60
2019-04-23T00:40:51.282Z,1.83
2019-04-23T00:43:34.167Z,2.37
2019-04-23T00:45:59.710Z,2.20
2019-04-23T00:48:32.838Z,2.30
2019-04-23T00:53:22.136Z,2.30
2019-04-23T00:55:55.664Z,2.80
2019-04-23T00:58:30.169Z,2.60
2019-04-23T01:00:55.738Z,2.30
2019-04-23T01:03:29.507Z,2.33
2019-04-23T01:06:08.144Z,2.30
2019-04-23T01:08:27.917Z,2.30
2019-04-23T01:11:01.865Z,2.50
2019-04-23T01:13:31.580Z,2.57
2019-04-23T01:16:00.753Z,2.70
2019-04-23T01:18:42.050Z,2.70
2019-04-23T01:20:53.646Z,2.33
2019-04-23T01:23:16.046Z,2.70
2019-04-23T01:25:57.711Z,2.70
2019-04-23T01:28:46.321Z,2.70
2019-04-23T01:31:18.241Z,2.70
2019-04-23T01:33:47.103Z,2.90
2019-04-23T01:38:45.568Z,2.83
2019-04-23T01:41:13.146Z,3.00
2019-04-23T01:43:41.053Z,2.80
2019-04-23T01:46:16.411Z,3.10
2019-04-23T01:48:48.555Z,2.93
2019-04-23T01:51:15.256Z,2.83
2019-04-23T01:53:45.239Z,3.03
2019-04-23T01:56:13.997Z,3.30
2019-04-23T01:58:45.119Z,3.00
2019-04-23T02:01:12.884Z,3.20
2019-04-23T02:03:52.254Z,3.23
2019-04-23T02:06:15.132Z,3.40
2019-04-23T02:08:47.312Z,3.30
2019-04-23T02:11:11.436Z,3.30
2019-04-23T02:16:17.535Z,3.33
2019-04-23T02:18:53.249Z,3.50
2019-04-23T02:21:27.306Z,3.37
2019-04-23T02:24:04.766Z,3.43
2019-04-23T02:26:39.922Z,3.50
2019-04-23T02:31:46.681Z,3.60
2019-04-23T02:34:00.523Z,3.33
2019-04-23T02:36:32.557Z,4.27
2019-04-23T02:38:56.042Z,4.00
2019-04-23T02:44:21.769Z,3.67
2019-04-23T02:46:26.478Z,4.00
2019-04-23T02:49:05.180Z,3.93
2019-04-23T02:54:17.236Z,4.00
2019-04-23T03:01:51.360Z,4.20
2019-04-23T03:04:08.429Z,4.13
2019-04-23T03:09:00.886Z,4.40
2019-04-23T03:11:37.489Z,4.27
2019-04-23T03:14:15.531Z,4.70
2019-04-23T03:19:24.136Z,4.63
2019-04-23T03:21:59.739Z,4.70
2019-04-23T03:24:38.932Z,4.33
2019-04-23T03:29:46.959Z,4.77
2019-04-23T03:37:19.882Z,4.33
2019-04-23T03:39:53.048Z,4.83
2019-04-23T03:44:45.054Z,4.63
2019-04-23T03:52:14.063Z,5.00
2019-04-23T03:54:37.719Z,4.80
2019-04-23T03:57:15.599Z,4.70
2019-04-23T04:02:20.755Z,4.90
2019-04-23T04:04:32.833Z,5.70
2019-04-23T04:07:10.679Z,4.80
2019-04-23T04:09:42.648Z,5.53
2019-04-23T04:12:14.305Z,5.30
2019-04-23T04:14:57.585Z,5.40
2019-04-23T04:17:17.901Z,6.03
2019-04-23T04:19:44.828Z,4.77
2019-04-23T04:22:21.711Z,4.80
2019-04-23T04:24:48.139Z,5.10
2019-04-23T04:27:22.099Z,4.67
2019-04-23T04:29:47.261Z,5.13
2019-04-23T04:32:24.662Z,5.37
2019-04-23T04:37:37.761Z,5.27
2019-04-23T04:42:10.423Z,5.30
2019-04-23T04:47:14.858Z,5.60
2019-04-23T04:52:26.775Z,5.60
2019-04-23T04:54:24.268Z,5.30
2019-04-23T04:59:45.679Z,5.10
2019-04-23T05:04:46.333Z,5.20
2019-04-23T05:09:48.263Z,4.87
2019-04-23T05:17:30.180Z,4.63
2019-04-23T05:19:52.223Z,5.00
2019-04-23T05:22:44.229Z,4.80
2019-04-23T05:24:46.520Z,4.80
2019-04-23T05:27:17.541Z,4.80
2019-04-23T05:29:53.862Z,4.67
2019-04-23T05:32:23.723Z,4.63
2019-04-23T05:34:52.125Z,4.63
2019-04-23T05:37:29.420Z,4.83
2019-04-23T05:39:50.101Z,4.70
2019-04-23T05:42:20.112Z,4.60
2019-04-23T05:44:50.291Z,5.03
2019-04-23T05:47:20.337Z,4.73
2019-04-23T05:49:56.177Z,5.00
2019-04-23T05:52:17.696Z,4.73
2019-04-23T05:57:18.385Z,5.07
2019-04-23T05:59:46.819Z,4.90
2019-04-23T06:02:19.796Z,4.70
2019-04-23T06:04:53.205Z,5.07
2019-04-23T06:07:28.890Z,8.43
2019-04-23T06:09:56.389Z,4.30
2019-04-23T06:12:21.921Z,4.90
2019-04-23T06:14:52.565Z,4.67
2019-04-23T06:17:29.792Z,4.70
2019-04-23T06:19:52.977Z,4.80
2019-04-23T06:24:48.785Z,5.10
2019-04-23T06:27:31.011Z,4.73
2019-04-23T06:29:54.932Z,4.37
2019-04-23T06:32:22.938Z,4.57
2019-04-23T06:34:52.876Z,4.87
2019-04-23T06:37:25.810Z,4.20
2019-04-23T06:39:55.159Z,4.77
2019-04-23T06:42:17.695Z,4.57
2019-04-23T06:47:20.099Z,4.43
2019-04-23T06:49:55.354Z,4.70
2019-04-23T06:52:21.680Z,4.83
2019-04-23T06:55:10.131Z,4.50
2019-04-23T06:57:22.270Z,4.57
2019-04-23T06:59:54.748Z,4.83
2019-04-23T07:02:30.170Z,4.37
2019-04-23T07:09:51.682Z,4.90
2019-04-23T07:14:59.575Z,4.83
2019-04-23T07:17:24.668Z,4.40
2019-04-23T07:19:58.146Z,4.20
2019-04-23T07:22:21.551Z,4.83
2019-04-23T07:24:52.853Z,4.50
2019-04-23T07:30:03.610Z,4.50
2019-04-23T07:32:23.048Z,4.73
2019-04-23T07:35:04.208Z,4.40
2019-04-23T07:45:35.400Z,4.60
2019-04-23T07:58:23.708Z,4.83
2019-04-23T08:00:45.153Z,5.10
2019-04-23T08:05:39.682Z,4.43
2019-04-23T08:08:22.713Z,4.77
2019-04-23T08:11:00.490Z,4.45
2019-04-23T08:13:18.562Z,5.10
2019-04-23T08:15:51.976Z,4.50
2019-04-23T08:23:16.441Z,4.53
2019-04-23T08:26:02.475Z,4.80
2019-04-23T08:28:37.147Z,8.37
2019-04-23T08:30:52.771Z,4.67
2019-04-23T08:33:56.861Z,4.60
2019-04-23T08:36:20.382Z,4.57
2019-04-23T08:38:44.690Z,4.33
2019-04-23T08:41:28.142Z,4.70
2019-04-23T08:43:57.333Z,4.90
2019-04-23T08:46:35.552Z,4.90
2019-04-23T08:48:58.630Z,4.57
2019-04-23T08:51:37.390Z,4.60
2019-04-23T08:53:55.484Z,5.10
2019-04-23T08:56:35.079Z,4.72
2019-04-23T08:58:53.666Z,4.95
2019-04-23T09:01:30.890Z,4.42
2019-04-23T09:03:52.666Z,4.15
2019-04-23T09:08:56.864Z,4.22
2019-04-23T09:13:57.660Z,4.85
2019-04-23T09:16:28.529Z,4.93
2019-04-23T09:19:11.111Z,4.87
2019-04-23T09:21:30.973Z,4.95
2019-04-23T09:23:59.091Z,4.72
2019-04-23T09:26:25.942Z,4.42
2019-04-23T09:29:12.194Z,4.85
2019-04-23T09:34:20.815Z,4.50
2019-04-23T09:36:45.309Z,4.90
2019-04-23T09:39:20.867Z,4.58
2019-04-23T09:42:08.990Z,4.92
2019-04-23T09:47:34.093Z,5.10
2019-04-23T09:49:55.537Z,5.08
2019-04-23T09:52:27.574Z,4.50
2019-04-23T09:57:24.654Z,5.45
2019-04-23T09:59:58.214Z,5.33
2019-04-23T10:02:19.343Z,5.17
2019-04-23T10:04:46.337Z,5.35
2019-04-23T10:07:15.304Z,5.17
2019-04-23T10:09:30.149Z,5.17
2019-04-23T10:11:58.844Z,5.20
2019-04-23T10:14:28.430Z,5.05
2019-04-23T10:16:58.052Z,5.10
2019-04-23T10:19:26.772Z,5.28
2019-04-23T10:21:55.689Z,5.30
2019-04-23T10:24:25.307Z,5.00
2019-04-23T10:26:53.888Z,5.03
2019-04-23T10:29:25.366Z,5.28
2019-04-23T10:31:55.565Z,7.25
2019-04-23T10:34:25.333Z,5.05
2019-04-23T10:37:13.605Z,4.92
2019-04-23T10:39:45.628Z,5.35
2019-04-23T10:42:14.074Z,4.83
2019-04-23T10:44:46.459Z,4.80
2019-04-23T10:48:12.202Z,5.17
2019-04-23T10:53:18.757Z,4.90
2019-04-23T10:55:47.955Z,4.90
2019-04-23T10:58:10.319Z,4.60
2019-04-23T11:00:37.628Z,4.90
2019-04-23T11:03:20.501Z,4.62
2019-04-23T11:08:12.707Z,5.37
2019-04-23T11:10:41.016Z,4.92
2019-04-23T11:13:33.836Z,5.03
2019-04-23T11:16:25.477Z,4.83
2019-04-23T11:18:36.525Z,6.15
2019-04-23T11:20:56.397Z,5.12
2019-04-23T11:23:32.578Z,4.83
2019-04-23T11:25:59.107Z,4.83
2019-04-23T11:31:09.121Z,4.65
2019-04-23T11:33:54.355Z,4.58
2019-04-23T11:38:49.022Z,4.90
2019-04-23T11:41:09.629Z,5.37
2019-04-23T11:43:38.045Z,4.90
2019-04-23T11:46:17.934Z,4.55
2019-04-23T11:49:04.709Z,5.10
2019-04-23T11:51:41.103Z,5.20
2019-04-23T11:53:44.333Z,4.70
2019-04-23T11:56:18.307Z,5.37
2019-04-23T11:58:42.786Z,5.20
2019-04-23T12:01:40.880Z,5.05
2019-04-23T12:03:56.666Z,4.90
2019-04-23T12:06:23.697Z,5.60
2019-04-23T12:09:25.673Z,4.80
2019-04-23T12:11:58.598Z,4.80
2019-04-23T12:14:42.121Z,5.58
2019-04-23T12:17:13.337Z,4.40
2019-04-23T12:27:22.521Z,5.10
2019-04-23T12:29:37.452Z,4.83
2019-04-23T12:32:43.162Z,5.05
2019-04-23T12:35:14.223Z,4.78
2019-04-23T12:40:23.077Z,4.30
2019-04-23T12:45:29.109Z,4.35
2019-04-23T12:47:58.289Z,4.97
2019-04-23T12:52:47.227Z,4.65
2019-04-23T12:55:23.405Z,4.65
2019-04-23T12:57:47.296Z,4.72
2019-04-23T13:00:23.253Z,4.53
2019-04-23T13:05:23.127Z,4.67
2019-04-23T13:10:27.350Z,4.62
2019-04-23T13:13:04.551Z,5.25
2019-04-23T13:15:22.672Z,4.30
2019-04-23T13:25:34.963Z,4.33
2019-04-23T13:30:37.640Z,6.00
2019-04-23T13:33:18.064Z,4.83
2019-04-23T13:38:08.913Z,4.60
2019-04-23T13:40:39.399Z,4.30
2019-04-23T13:43:14.977Z,4.30
2019-04-23T13:53:17.807Z,4.10
2019-04-23T13:55:42.891Z,4.20
2019-04-23T13:58:15.236Z,5.00
2019-04-23T14:03:26.315Z,5.05
2019-04-23T14:05:51.273Z,4.42
2019-04-23T14:08:33.560Z,5.10
2019-04-23T14:13:37.123Z,4.90
2019-04-23T14:21:03.602Z,4.65
2019-04-23T14:28:28.057Z,4.45
2019-04-23T14:33:37.926Z,4.12
2019-04-23T14:35:49.800Z,5.17
2019-04-23T14:41:05.078Z,4.92
2019-04-23T14:46:22.991Z,4.30
2019-04-23T14:48:23.450Z,4.33
2019-04-23T14:51:09.881Z,3.87
2019-04-23T14:58:42.831Z,4.85
2019-04-23T15:03:44.441Z,4.50
2019-04-23T15:08:50.140Z,4.87
2019-04-23T15:11:20.863Z,4.45
2019-04-23T15:13:37.899Z,4.83
2019-04-23T15:18:55.169Z,4.10
2019-04-23T15:24:02.166Z,3.83
2019-04-23T15:27:21.887Z,4.25
2019-04-23T15:28:36.549Z,4.60
2019-04-23T15:31:24.736Z,4.97
2019-04-23T15:34:12.523Z,4.10
2019-04-23T15:36:52.444Z,4.28
2019-04-23T15:39:16.907Z,4.55
2019-04-23T15:41:31.820Z,4.45
2019-04-23T15:44:06.033Z,4.42
2019-04-23T15:49:07.984Z,4.33
2019-04-23T15:54:02.841Z,4.85
2019-04-23T15:56:37.073Z,4.87
2019-04-23T16:01:35.136Z,4.67
2019-04-23T16:03:31.939Z,4.70
2019-04-23T16:06:02.524Z,4.55
2019-04-23T16:09:05.522Z,4.62
2019-04-23T16:11:39.725Z,4.75
2019-04-23T16:19:07.768Z,4.60
2019-04-23T16:21:47.396Z,4.72
2019-04-23T16:24:16.496Z,4.65
2019-04-23T16:29:25.870Z,4.75
2019-04-23T16:31:41.378Z,4.53
2019-04-23T16:34:25.644Z,5.10
2019-04-23T16:36:55.571Z,5.08
2019-04-23T16:39:16.908Z,4.62
2019-04-23T16:41:57.479Z,4.90
2019-04-23T16:44:37.008Z,5.00
2019-04-23T16:46:56.367Z,4.55
2019-04-23T16:51:45.539Z,4.90
2019-04-23T16:54:24.571Z,5.28
2019-04-23T16:57:13.298Z,4.80
2019-04-23T16:59:18.431Z,5.00
2019-04-23T17:01:59.637Z,4.72
2019-04-23T17:04:24.467Z,4.72
2019-04-23T17:06:52.450Z,4.35
2019-04-23T17:09:35.560Z,4.72
2019-04-23T17:12:00.072Z,4.33
2019-04-23T17:14:19.023Z,3.98
2019-04-23T17:16:59.826Z,4.60
2019-04-23T17:19:22.424Z,4.33
2019-04-23T17:26:58.481Z,4.70
2019-04-23T17:29:28.596Z,4.28
2019-04-23T17:31:53.061Z,4.60
2019-04-23T17:34:30.693Z,4.58
2019-04-23T17:39:54.625Z,5.97
2019-04-23T17:42:27.332Z,14.65
2019-04-23T17:50:13.703Z,4.40
2019-04-23T17:55:13.025Z,4.67
2019-04-23T17:57:37.011Z,4.45
2019-04-23T18:02:55.499Z,4.37
2019-04-23T18:12:43.598Z,5.03
2019-04-23T18:15:13.037Z,5.55
2019-04-23T18:17:43.280Z,5.30
2019-04-23T18:20:16.756Z,5.00
2019-04-23T18:22:47.283Z,4.53
2019-04-23T18:25:16.875Z,4.85
2019-04-23T18:27:47.970Z,4.22
2019-04-23T18:30:47.555Z,4.47
2019-04-23T18:35:24.301Z,3.97
2019-04-23T18:38:00.568Z,4.60
2019-04-23T18:40:28.566Z,4.53
2019-04-23T18:43:07.346Z,4.00
2019-04-23T18:45:39.636Z,4.63
2019-04-23T18:48:28.781Z,4.62
2019-04-23T18:53:22.747Z,4.20
2019-04-23T18:58:21.951Z,3.98
2019-04-23T19:00:59.098Z,3.93
2019-04-23T19:03:36.621Z,4.50
2019-04-23T19:06:30.380Z,4.10
2019-04-23T19:11:44.459Z,4.20
2019-04-23T19:14:12.686Z,4.00
2019-04-23T19:16:41.590Z,4.20
2019-04-23T19:19:05.722Z,4.57
2019-04-23T19:21:57.296Z,4.63
2019-04-23T19:24:21.929Z,4.00
2019-04-23T19:31:56.700Z,4.77
2019-04-23T19:44:37.288Z,3.57
2019-04-23T19:47:01.712Z,4.20
2019-04-23T19:54:33.999Z,4.77
2019-04-23T19:56:55.224Z,5.17
2019-04-23T19:59:43.115Z,4.30
2019-04-23T20:04:07.942Z,4.60
2019-04-23T20:07:00.480Z,4.77
2019-04-23T20:11:42.558Z,5.03
2019-04-23T20:14:29.213Z,4.97
2019-04-23T20:16:59.802Z,4.53
2019-04-23T20:19:24.160Z,5.20
2019-04-23T20:21:52.985Z,5.47
2019-04-23T20:26:59.832Z,4.77
2019-04-23T20:39:38.497Z,4.90
2019-04-23T20:44:47.194Z,4.93
2019-04-23T20:47:09.916Z,4.60
2019-04-23T20:49:42.980Z,5.10
2019-04-23T20:52:09.556Z,4.40
2019-04-23T20:54:51.020Z,4.47
2019-04-23T21:00:06.743Z,4.53
2019-04-23T21:05:03.492Z,4.80
2019-04-23T21:07:41.884Z,4.40
2019-04-23T21:10:22.386Z,4.47
2019-04-23T21:12:50.052Z,4.20
2019-04-23T21:15:12.199Z,4.33
2019-04-23T21:17:46.627Z,4.23
2019-04-23T21:22:30.843Z,4.70
2019-04-23T21:25:00.116Z,4.03
2019-04-23T21:27:57.255Z,4.33
2019-04-23T21:30:09.097Z,4.10
2019-04-23T21:38:00.856Z,4.17
2019-04-23T21:40:48.869Z,3.90
2019-04-23T21:43:00.942Z,3.97
2019-04-23T21:45:31.945Z,3.87
2019-04-23T21:48:02.992Z,3.97
2019-04-23T21:50:39.559Z,3.70
2019-04-23T21:52:54.904Z,4.27
2019-04-23T21:55:31.086Z,4.17
2019-04-23T22:00:34.630Z,4.07
2019-04-23T22:03:06.742Z,4.13
2019-04-23T22:05:40.499Z,3.73
2019-04-23T22:10:25.437Z,3.47
2019-04-23T22:15:34.546Z,4.00
2019-04-23T22:18:18.287Z,3.90
2019-04-23T22:23:08.800Z,4.20
2019-04-23T22:25:32.937Z,4.20
2019-04-23T22:27:58.887Z,4.27
2019-04-23T22:30:33.320Z,4.10
2019-04-23T22:33:03.019Z,4.27
2019-04-23T22:35:30.155Z,3.90
2019-04-23T22:38:09.745Z,4.30
2019-04-23T22:40:25.099Z,4.20
2019-04-23T22:45:52.679Z,4.40
2019-04-23T22:48:03.003Z,4.13
2019-04-23T22:50:29.684Z,3.80
2019-04-23T22:53:04.990Z,4.60
2019-04-23T22:55:33.563Z,4.13
2019-04-23T22:58:08.196Z,4.03
2019-04-23T23:00:24.857Z,4.10
2019-04-23T23:03:06.308Z,4.03
2019-04-23T23:05:50.012Z,4.37
2019-04-23T23:08:07.861Z,4.30
2019-04-23T23:10:38.189Z,4.20
2019-04-23T23:13:15.566Z,4.70
2019-04-23T23:15:41.728Z,3.93
2019-04-23T23:20:47.806Z,5.03
2019-04-23T23:23:16.403Z,4.60
2019-04-23T23:25:39.712Z,5.00
2019-04-23T23:28:16.089Z,4.80
2019-04-23T23:30:47.171Z,4.53
2019-04-23T23:33:12.932Z,4.50
2019-04-23T23:38:16.713Z,4.87
2019-04-23T23:41:05.329Z,4.33
2019-04-23T23:43:22.613Z,5.23
2019-04-23T23:45:48.500Z,5.20
2019-04-23T23:48:13.045Z,5.03
2019-04-23T23:50:55.122Z,4.30
2019-04-23T23:53:27.749Z,4.50
2019-04-23T23:55:49.282Z,4.70
2019-04-23T23:58:23.540Z,4.50
